sensor_id;sensor_type;location;lat;lon;timestamp;temperature;humidity
59282;DHT22;45054;52.062;10.010;2023-06-14T00:01:38;16.80;99.90
59282;DHT22;45054;52.062;10.010;2023-06-14T00:04:04;16.80;99.90
59282;DHT22;45054;52.062;10.010;2023-06-14T00:06:31;16.80;99.90
59282;DHT22;45054;52.062;10.010;2023-06-14T00:08:57;16.60;99.90
59282;DHT22;45054;52.062;10.010;2023-06-14T00:11:23;16.50;99.90
59282;DHT22;45054;52.062;10.010;2023-06-14T00:13:49;16.40;99.90
59282;DHT22;45054;52.062;10.010;2023-06-14T00:16:14;16.50;99.90
59282;DHT22;45054;52.062;10.010;2023-06-14T00:18:40;16.60;99.90
59282;DHT22;45054;52.062;10.010;2023-06-14T00:21:06;16.60;99.90
59282;DHT22;45054;52.062;10.010;2023-06-14T00:23:34;16.30;99.90
59282;DHT22;45054;52.062;10.010;2023-06-14T00:25:59;16.20;99.90
59282;DHT22;45054;52.062;10.010;2023-06-14T00:28:25;16.10;99.90
59282;DHT22;45054;52.062;10.010;2023-06-14T00:30:51;16.10;99.90
59282;DHT22;45054;52.062;10.010;2023-06-14T00:33:17;16.10;99.90
59282;DHT22;45054;52.062;10.010;2023-06-14T00:35:43;16.00;99.90
59282;DHT22;45054;52.062;10.010;2023-06-14T00:38:09;16.10;99.90
59282;DHT22;45054;52.062;10.010;2023-06-14T00:40:36;16.00;99.90
59282;DHT22;45054;52.062;10.010;2023-06-14T00:43:02;16.00;99.90
59282;DHT22;45054;52.062;10.010;2023-06-14T00:45:28;15.90;99.90
59282;DHT22;45054;52.062;10.010;2023-06-14T00:47:53;16.00;99.90
59282;DHT22;45054;52.062;10.010;2023-06-14T00:50:20;15.90;99.90
59282;DHT22;45054;52.062;10.010;2023-06-14T00:52:45;16.00;99.90
59282;DHT22;45054;52.062;10.010;2023-06-14T00:55:12;15.90;99.90
59282;DHT22;45054;52.062;10.010;2023-06-14T00:57:39;15.80;99.90
59282;DHT22;45054;52.062;10.010;2023-06-14T01:00:05;15.80;99.90
59282;DHT22;45054;52.062;10.010;2023-06-14T01:02:32;15.70;99.90
59282;DHT22;45054;52.062;10.010;2023-06-14T01:04:58;15.60;99.90
59282;DHT22;45054;52.062;10.010;2023-06-14T01:07:29;15.70;99.90
59282;DHT22;45054;52.062;10.010;2023-06-14T01:10:03;15.70;99.90
59282;DHT22;45054;52.062;10.010;2023-06-14T01:12:34;15.70;99.90
59282;DHT22;45054;52.062;10.010;2023-06-14T01:15:03;15.70;99.90
59282;DHT22;45054;52.062;10.010;2023-06-14T01:17:29;15.60;99.90
59282;DHT22;45054;52.062;10.010;2023-06-14T01:19:56;15.60;99.90
59282;DHT22;45054;52.062;10.010;2023-06-14T01:22:22;15.50;99.90
59282;DHT22;45054;52.062;10.010;2023-06-14T01:24:50;15.50;99.90
59282;DHT22;45054;52.062;10.010;2023-06-14T01:27:16;15.40;99.90
59282;DHT22;45054;52.062;10.010;2023-06-14T01:29:42;15.40;99.90
59282;DHT22;45054;52.062;10.010;2023-06-14T01:32:08;15.50;99.90
59282;DHT22;45054;52.062;10.010;2023-06-14T01:34:34;15.50;99.90
59282;DHT22;45054;52.062;10.010;2023-06-14T01:37:00;15.40;99.90
59282;DHT22;45054;52.062;10.010;2023-06-14T01:39:26;15.30;99.90
59282;DHT22;45054;52.062;10.010;2023-06-14T01:41:54;15.30;99.90
59282;DHT22;45054;52.062;10.010;2023-06-14T01:44:20;15.30;99.90
59282;DHT22;45054;52.062;10.010;2023-06-14T01:46:47;15.20;99.90
59282;DHT22;45054;52.062;10.010;2023-06-14T01:49:13;15.30;99.90
59282;DHT22;45054;52.062;10.010;2023-06-14T01:51:39;15.20;99.90
59282;DHT22;45054;52.062;10.010;2023-06-14T01:54:04;15.20;99.90
59282;DHT22;45054;52.062;10.010;2023-06-14T01:56:31;15.10;99.90
59282;DHT22;45054;52.062;10.010;2023-06-14T01:58:58;15.00;99.90
59282;DHT22;45054;52.062;10.010;2023-06-14T02:01:24;14.90;99.90
59282;DHT22;45054;52.062;10.010;2023-06-14T02:03:50;14.90;99.90
59282;DHT22;45054;52.062;10.010;2023-06-14T02:06:16;14.90;99.90
59282;DHT22;45054;52.062;10.010;2023-06-14T02:08:42;14.80;99.90
59282;DHT22;45054;52.062;10.010;2023-06-14T02:11:07;14.80;99.90
59282;DHT22;45054;52.062;10.010;2023-06-14T02:13:33;14.80;99.90
59282;DHT22;45054;52.062;10.010;2023-06-14T02:16:00;14.80;99.90
59282;DHT22;45054;52.062;10.010;2023-06-14T02:18:26;14.70;99.90
59282;DHT22;45054;52.062;10.010;2023-06-14T02:20:51;14.60;99.90
59282;DHT22;45054;52.062;10.010;2023-06-14T02:23:17;14.60;99.90
59282;DHT22;45054;52.062;10.010;2023-06-14T02:25:43;14.50;99.90
59282;DHT22;45054;52.062;10.010;2023-06-14T02:28:09;14.60;99.90
59282;DHT22;45054;52.062;10.010;2023-06-14T02:30:35;14.50;99.90
59282;DHT22;45054;52.062;10.010;2023-06-14T02:33:03;14.50;99.90
59282;DHT22;45054;52.062;10.010;2023-06-14T02:35:29;14.40;99.90
59282;DHT22;45054;52.062;10.010;2023-06-14T02:37:55;14.30;99.90
59282;DHT22;45054;52.062;10.010;2023-06-14T02:40:21;14.20;99.90
59282;DHT22;45054;52.062;10.010;2023-06-14T02:42:47;14.10;99.90
59282;DHT22;45054;52.062;10.010;2023-06-14T02:45:16;14.00;99.90
59282;DHT22;45054;52.062;10.010;2023-06-14T02:47:42;14.00;99.90
59282;DHT22;45054;52.062;10.010;2023-06-14T02:50:10;13.90;99.90
59282;DHT22;45054;52.062;10.010;2023-06-14T02:52:36;13.80;99.90
59282;DHT22;45054;52.062;10.010;2023-06-14T02:55:02;13.80;99.90
59282;DHT22;45054;52.062;10.010;2023-06-14T02:57:28;13.70;99.90
59282;DHT22;45054;52.062;10.010;2023-06-14T02:59:53;13.70;99.90
59282;DHT22;45054;52.062;10.010;2023-06-14T03:02:19;13.70;99.90
59282;DHT22;45054;52.062;10.010;2023-06-14T03:04:45;13.70;99.90
59282;DHT22;45054;52.062;10.010;2023-06-14T03:07:13;13.70;99.90
59282;DHT22;45054;52.062;10.010;2023-06-14T03:09:39;13.80;99.90
59282;DHT22;45054;52.062;10.010;2023-06-14T03:12:05;13.80;99.90
59282;DHT22;45054;52.062;10.010;2023-06-14T03:14:31;13.70;99.90
59282;DHT22;45054;52.062;10.010;2023-06-14T03:16:57;13.70;99.90
59282;DHT22;45054;52.062;10.010;2023-06-14T03:19:23;13.70;99.90
59282;DHT22;45054;52.062;10.010;2023-06-14T03:21:48;13.60;99.90
59282;DHT22;45054;52.062;10.010;2023-06-14T03:24:16;13.60;99.90
59282;DHT22;45054;52.062;10.010;2023-06-14T03:26:41;13.60;99.90
59282;DHT22;45054;52.062;10.010;2023-06-14T03:29:07;13.60;99.90
59282;DHT22;45054;52.062;10.010;2023-06-14T03:31:33;13.60;99.90
59282;DHT22;45054;52.062;10.010;2023-06-14T03:34:00;13.60;99.90
59282;DHT22;45054;52.062;10.010;2023-06-14T03:36:25;13.60;99.90
59282;DHT22;45054;52.062;10.010;2023-06-14T03:38:51;13.60;99.90
59282;DHT22;45054;52.062;10.010;2023-06-14T03:41:18;13.60;99.90
59282;DHT22;45054;52.062;10.010;2023-06-14T03:43:44;13.60;99.90
59282;DHT22;45054;52.062;10.010;2023-06-14T03:46:10;13.50;99.90
59282;DHT22;45054;52.062;10.010;2023-06-14T03:48:36;13.40;99.90
59282;DHT22;45054;52.062;10.010;2023-06-14T03:51:02;13.50;99.90
59282;DHT22;45054;52.062;10.010;2023-06-14T03:53:27;13.50;99.90
59282;DHT22;45054;52.062;10.010;2023-06-14T03:55:53;13.40;99.90
59282;DHT22;45054;52.062;10.010;2023-06-14T03:58:20;13.40;99.90
59282;DHT22;45054;52.062;10.010;2023-06-14T04:00:46;13.30;99.90
59282;DHT22;45054;52.062;10.010;2023-06-14T04:03:12;13.30;99.90
59282;DHT22;45054;52.062;10.010;2023-06-14T04:05:38;13.20;99.90
59282;DHT22;45054;52.062;10.010;2023-06-14T04:08:04;13.30;99.90
59282;DHT22;45054;52.062;10.010;2023-06-14T04:10:30;13.30;99.90
59282;DHT22;45054;52.062;10.010;2023-06-14T04:12:56;13.20;99.90
59282;DHT22;45054;52.062;10.010;2023-06-14T04:15:24;13.20;99.90
59282;DHT22;45054;52.062;10.010;2023-06-14T04:17:50;13.10;99.90
59282;DHT22;45054;52.062;10.010;2023-06-14T04:20:16;13.10;99.90
59282;DHT22;45054;52.062;10.010;2023-06-14T04:22:42;13.10;99.90
59282;DHT22;45054;52.062;10.010;2023-06-14T04:25:08;13.10;99.90
59282;DHT22;45054;52.062;10.010;2023-06-14T04:27:34;13.10;99.90
59282;DHT22;45054;52.062;10.010;2023-06-14T04:30:00;13.00;99.90
59282;DHT22;45054;52.062;10.010;2023-06-14T04:32:27;13.00;99.90
59282;DHT22;45054;52.062;10.010;2023-06-14T04:34:53;13.00;99.90
59282;DHT22;45054;52.062;10.010;2023-06-14T04:37:19;13.00;99.90
59282;DHT22;45054;52.062;10.010;2023-06-14T04:39:45;13.00;99.90
59282;DHT22;45054;52.062;10.010;2023-06-14T04:42:10;13.00;99.90
59282;DHT22;45054;52.062;10.010;2023-06-14T04:44:37;13.00;99.90
59282;DHT22;45054;52.062;10.010;2023-06-14T04:47:02;13.00;99.90
59282;DHT22;45054;52.062;10.010;2023-06-14T04:49:30;13.10;99.90
59282;DHT22;45054;52.062;10.010;2023-06-14T04:51:56;13.20;99.90
59282;DHT22;45054;52.062;10.010;2023-06-14T04:54:21;13.20;99.90
59282;DHT22;45054;52.062;10.010;2023-06-14T04:56:50;13.30;99.90
59282;DHT22;45054;52.062;10.010;2023-06-14T04:59:16;13.30;99.90
59282;DHT22;45054;52.062;10.010;2023-06-14T05:01:42;13.30;99.90
59282;DHT22;45054;52.062;10.010;2023-06-14T05:04:07;13.30;99.90
59282;DHT22;45054;52.062;10.010;2023-06-14T05:06:35;13.30;99.90
59282;DHT22;45054;52.062;10.010;2023-06-14T05:09:00;13.50;99.90
59282;DHT22;45054;52.062;10.010;2023-06-14T05:11:26;13.60;99.90
59282;DHT22;45054;52.062;10.010;2023-06-14T05:13:52;13.70;99.90
59282;DHT22;45054;52.062;10.010;2023-06-14T05:16:18;13.70;99.90
59282;DHT22;45054;52.062;10.010;2023-06-14T05:18:43;13.80;99.90
59282;DHT22;45054;52.062;10.010;2023-06-14T05:21:09;13.90;99.90
59282;DHT22;45054;52.062;10.010;2023-06-14T05:23:37;14.00;99.90
59282;DHT22;45054;52.062;10.010;2023-06-14T05:26:03;14.10;99.90
59282;DHT22;45054;52.062;10.010;2023-06-14T05:28:29;14.10;99.90
59282;DHT22;45054;52.062;10.010;2023-06-14T05:30:57;14.20;99.90
59282;DHT22;45054;52.062;10.010;2023-06-14T05:33:24;14.20;99.90
59282;DHT22;45054;52.062;10.010;2023-06-14T05:35:50;14.30;99.90
59282;DHT22;45054;52.062;10.010;2023-06-14T05:38:16;14.30;99.90
59282;DHT22;45054;52.062;10.010;2023-06-14T05:40:43;14.30;99.90
59282;DHT22;45054;52.062;10.010;2023-06-14T05:43:09;14.40;99.90
59282;DHT22;45054;52.062;10.010;2023-06-14T05:45:35;14.40;99.90
59282;DHT22;45054;52.062;10.010;2023-06-14T05:48:01;14.40;99.90
59282;DHT22;45054;52.062;10.010;2023-06-14T05:50:27;14.40;99.90
59282;DHT22;45054;52.062;10.010;2023-06-14T05:52:53;14.50;99.90
59282;DHT22;45054;52.062;10.010;2023-06-14T05:55:19;14.60;99.90
59282;DHT22;45054;52.062;10.010;2023-06-14T05:57:46;14.50;99.90
59282;DHT22;45054;52.062;10.010;2023-06-14T06:00:13;14.60;99.90
59282;DHT22;45054;52.062;10.010;2023-06-14T06:02:39;14.60;99.90
59282;DHT22;45054;52.062;10.010;2023-06-14T06:05:05;14.60;99.90
59282;DHT22;45054;52.062;10.010;2023-06-14T06:07:31;14.80;99.90
59282;DHT22;45054;52.062;10.010;2023-06-14T06:09:57;14.70;99.90
59282;DHT22;45054;52.062;10.010;2023-06-14T06:12:23;14.80;99.90
59282;DHT22;45054;52.062;10.010;2023-06-14T06:14:50;14.80;99.90
59282;DHT22;45054;52.062;10.010;2023-06-14T06:17:16;14.90;99.90
59282;DHT22;45054;52.062;10.010;2023-06-14T06:19:42;14.90;99.90
59282;DHT22;45054;52.062;10.010;2023-06-14T06:22:08;15.00;99.90
59282;DHT22;45054;52.062;10.010;2023-06-14T06:24:33;15.00;99.90
59282;DHT22;45054;52.062;10.010;2023-06-14T06:26:59;15.10;99.90
59282;DHT22;45054;52.062;10.010;2023-06-14T06:29:25;15.20;99.90
59282;DHT22;45054;52.062;10.010;2023-06-14T06:31:53;15.30;99.90
59282;DHT22;45054;52.062;10.010;2023-06-14T06:34:18;15.20;99.90
59282;DHT22;45054;52.062;10.010;2023-06-14T06:36:44;15.30;99.90
59282;DHT22;45054;52.062;10.010;2023-06-14T06:39:10;15.40;99.90
59282;DHT22;45054;52.062;10.010;2023-06-14T06:41:36;15.50;99.90
59282;DHT22;45054;52.062;10.010;2023-06-14T06:44:02;15.60;99.90
59282;DHT22;45054;52.062;10.010;2023-06-14T06:46:27;15.70;99.90
59282;DHT22;45054;52.062;10.010;2023-06-14T06:48:55;15.70;99.90
59282;DHT22;45054;52.062;10.010;2023-06-14T06:51:20;15.70;99.90
59282;DHT22;45054;52.062;10.010;2023-06-14T06:53:52;15.80;99.90
59282;DHT22;45054;52.062;10.010;2023-06-14T06:56:17;15.80;99.90
59282;DHT22;45054;52.062;10.010;2023-06-14T06:58:44;15.90;99.90
59282;DHT22;45054;52.062;10.010;2023-06-14T07:01:10;15.90;99.90
59282;DHT22;45054;52.062;10.010;2023-06-14T07:03:36;16.00;99.90
59282;DHT22;45054;52.062;10.010;2023-06-14T07:06:03;16.10;99.90
59282;DHT22;45054;52.062;10.010;2023-06-14T07:08:29;16.10;99.90
59282;DHT22;45054;52.062;10.010;2023-06-14T07:10:55;16.20;99.90
59282;DHT22;45054;52.062;10.010;2023-06-14T07:13:21;16.30;99.90
59282;DHT22;45054;52.062;10.010;2023-06-14T07:15:47;16.30;99.90
59282;DHT22;45054;52.062;10.010;2023-06-14T07:18:13;16.30;99.90
59282;DHT22;45054;52.062;10.010;2023-06-14T07:20:39;16.40;99.90
59282;DHT22;45054;52.062;10.010;2023-06-14T07:23:06;16.40;99.90
59282;DHT22;45054;52.062;10.010;2023-06-14T07:25:32;16.50;99.90
59282;DHT22;45054;52.062;10.010;2023-06-14T07:27:58;16.50;99.90
59282;DHT22;45054;52.062;10.010;2023-06-14T07:30:24;16.60;99.90
59282;DHT22;45054;52.062;10.010;2023-06-14T07:32:50;16.70;99.90
59282;DHT22;45054;52.062;10.010;2023-06-14T07:35:16;16.70;99.90
59282;DHT22;45054;52.062;10.010;2023-06-14T07:37:42;16.70;99.90
59282;DHT22;45054;52.062;10.010;2023-06-14T07:40:10;16.80;99.90
59282;DHT22;45054;52.062;10.010;2023-06-14T07:42:36;16.90;99.90
59282;DHT22;45054;52.062;10.010;2023-06-14T07:45:02;16.90;99.90
59282;DHT22;45054;52.062;10.010;2023-06-14T07:47:28;16.90;99.90
59282;DHT22;45054;52.062;10.010;2023-06-14T07:49:54;17.00;99.90
59282;DHT22;45054;52.062;10.010;2023-06-14T07:52:20;17.10;99.90
59282;DHT22;45054;52.062;10.010;2023-06-14T07:54:46;17.10;99.90
59282;DHT22;45054;52.062;10.010;2023-06-14T07:57:13;17.10;99.90
59282;DHT22;45054;52.062;10.010;2023-06-14T07:59:39;17.20;99.90
59282;DHT22;45054;52.062;10.010;2023-06-14T08:02:05;17.30;99.90
59282;DHT22;45054;52.062;10.010;2023-06-14T08:04:31;17.40;99.90
59282;DHT22;45054;52.062;10.010;2023-06-14T08:06:57;17.40;99.90
59282;DHT22;45054;52.062;10.010;2023-06-14T08:09:23;17.50;99.90
59282;DHT22;45054;52.062;10.010;2023-06-14T08:11:48;17.60;99.90
59282;DHT22;45054;52.062;10.010;2023-06-14T08:14:17;17.70;99.90
59282;DHT22;45054;52.062;10.010;2023-06-14T08:16:42;17.70;99.90
59282;DHT22;45054;52.062;10.010;2023-06-14T08:19:08;17.80;99.90
59282;DHT22;45054;52.062;10.010;2023-06-14T08:21:34;17.80;99.90
59282;DHT22;45054;52.062;10.010;2023-06-14T08:24:00;17.90;99.90
59282;DHT22;45054;52.062;10.010;2023-06-14T08:26:26;18.00;99.90
59282;DHT22;45054;52.062;10.010;2023-06-14T08:28:51;17.90;99.90
59282;DHT22;45054;52.062;10.010;2023-06-14T08:31:19;17.90;99.90
59282;DHT22;45054;52.062;10.010;2023-06-14T08:33:44;17.90;99.90
59282;DHT22;45054;52.062;10.010;2023-06-14T08:36:11;17.90;99.90
59282;DHT22;45054;52.062;10.010;2023-06-14T08:38:36;18.00;99.90
59282;DHT22;45054;52.062;10.010;2023-06-14T08:41:02;18.10;99.90
59282;DHT22;45054;52.062;10.010;2023-06-14T08:43:29;18.20;99.90
59282;DHT22;45054;52.062;10.010;2023-06-14T08:45:57;18.20;99.90
59282;DHT22;45054;52.062;10.010;2023-06-14T08:48:25;18.30;99.90
59282;DHT22;45054;52.062;10.010;2023-06-14T08:50:51;18.50;99.90
59282;DHT22;45054;52.062;10.010;2023-06-14T08:53:20;18.50;99.90
59282;DHT22;45054;52.062;10.010;2023-06-14T08:55:46;18.60;99.90
59282;DHT22;45054;52.062;10.010;2023-06-14T08:58:12;18.60;99.90
59282;DHT22;45054;52.062;10.010;2023-06-14T09:00:38;18.60;99.90
59282;DHT22;45054;52.062;10.010;2023-06-14T09:03:04;18.70;99.90
59282;DHT22;45054;52.062;10.010;2023-06-14T09:05:31;18.80;99.90
59282;DHT22;45054;52.062;10.010;2023-06-14T09:07:57;18.80;99.90
59282;DHT22;45054;52.062;10.010;2023-06-14T09:10:23;18.80;99.90
59282;DHT22;45054;52.062;10.010;2023-06-14T09:12:48;19.00;99.90
59282;DHT22;45054;52.062;10.010;2023-06-14T09:15:14;19.00;99.90
59282;DHT22;45054;52.062;10.010;2023-06-14T09:17:40;19.00;99.90
59282;DHT22;45054;52.062;10.010;2023-06-14T09:20:07;19.10;99.90
59282;DHT22;45054;52.062;10.010;2023-06-14T09:22:35;19.20;99.90
59282;DHT22;45054;52.062;10.010;2023-06-14T09:25:01;19.40;99.90
59282;DHT22;45054;52.062;10.010;2023-06-14T09:27:27;19.50;99.90
59282;DHT22;45054;52.062;10.010;2023-06-14T09:29:53;19.70;99.90
59282;DHT22;45054;52.062;10.010;2023-06-14T09:32:19;19.60;99.90
59282;DHT22;45054;52.062;10.010;2023-06-14T09:34:45;19.50;99.90
59282;DHT22;45054;52.062;10.010;2023-06-14T09:37:11;19.50;99.90
59282;DHT22;45054;52.062;10.010;2023-06-14T09:39:45;19.60;99.90
59282;DHT22;45054;52.062;10.010;2023-06-14T09:42:16;19.70;99.90
59282;DHT22;45054;52.062;10.010;2023-06-14T09:44:42;19.90;99.90
59282;DHT22;45054;52.062;10.010;2023-06-14T09:47:08;20.10;99.90
59282;DHT22;45054;52.062;10.010;2023-06-14T09:49:34;20.00;99.90
59282;DHT22;45054;52.062;10.010;2023-06-14T09:52:00;20.20;99.90
59282;DHT22;45054;52.062;10.010;2023-06-14T09:54:26;20.30;99.90
59282;DHT22;45054;52.062;10.010;2023-06-14T09:56:54;20.50;99.90
59282;DHT22;45054;52.062;10.010;2023-06-14T09:59:21;20.50;99.90
59282;DHT22;45054;52.062;10.010;2023-06-14T10:01:47;20.50;99.90
59282;DHT22;45054;52.062;10.010;2023-06-14T10:04:14;20.50;99.90
59282;DHT22;45054;52.062;10.010;2023-06-14T10:06:43;20.60;99.90
59282;DHT22;45054;52.062;10.010;2023-06-14T10:09:09;20.60;99.90
59282;DHT22;45054;52.062;10.010;2023-06-14T10:11:36;20.60;99.90
59282;DHT22;45054;52.062;10.010;2023-06-14T10:14:03;20.70;99.90
59282;DHT22;45054;52.062;10.010;2023-06-14T10:16:31;20.70;99.90
59282;DHT22;45054;52.062;10.010;2023-06-14T10:19:00;20.70;99.90
59282;DHT22;45054;52.062;10.010;2023-06-14T10:21:31;20.60;99.90
59282;DHT22;45054;52.062;10.010;2023-06-14T10:23:58;20.70;99.90
59282;DHT22;45054;52.062;10.010;2023-06-14T10:26:25;20.80;99.90
59282;DHT22;45054;52.062;10.010;2023-06-14T10:28:57;20.80;99.90
59282;DHT22;45054;52.062;10.010;2023-06-14T10:31:26;20.80;99.90
59282;DHT22;45054;52.062;10.010;2023-06-14T10:34:05;20.80;99.90
59282;DHT22;45054;52.062;10.010;2023-06-14T10:36:31;20.70;99.90
59282;DHT22;45054;52.062;10.010;2023-06-14T10:38:57;20.50;99.90
59282;DHT22;45054;52.062;10.010;2023-06-14T10:41:23;20.40;99.90
59282;DHT22;45054;52.062;10.010;2023-06-14T10:43:50;20.60;99.90
59282;DHT22;45054;52.062;10.010;2023-06-14T10:46:16;20.80;99.90
59282;DHT22;45054;52.062;10.010;2023-06-14T10:48:44;21.10;99.90
59282;DHT22;45054;52.062;10.010;2023-06-14T10:51:16;21.40;99.90
59282;DHT22;45054;52.062;10.010;2023-06-14T10:53:42;21.60;99.90
59282;DHT22;45054;52.062;10.010;2023-06-14T10:56:08;21.70;99.90
59282;DHT22;45054;52.062;10.010;2023-06-14T10:58:34;21.80;99.90
59282;DHT22;45054;52.062;10.010;2023-06-14T11:01:00;22.00;99.90
59282;DHT22;45054;52.062;10.010;2023-06-14T11:03:35;22.10;99.90
59282;DHT22;45054;52.062;10.010;2023-06-14T11:06:08;22.20;99.90
59282;DHT22;45054;52.062;10.010;2023-06-14T11:11:21;22.30;99.90
59282;DHT22;45054;52.062;10.010;2023-06-14T11:13:47;22.00;99.90
59282;DHT22;45054;52.062;10.010;2023-06-14T11:16:13;22.00;99.90
59282;DHT22;45054;52.062;10.010;2023-06-14T11:18:39;22.00;99.90
59282;DHT22;45054;52.062;10.010;2023-06-14T11:21:08;21.80;99.90
59282;DHT22;45054;52.062;10.010;2023-06-14T11:23:33;21.70;99.90
59282;DHT22;45054;52.062;10.010;2023-06-14T11:25:59;21.70;99.90
59282;DHT22;45054;52.062;10.010;2023-06-14T11:28:25;21.80;99.90
59282;DHT22;45054;52.062;10.010;2023-06-14T11:31:00;21.70;99.90
59282;DHT22;45054;52.062;10.010;2023-06-14T11:33:26;21.80;99.90
59282;DHT22;45054;52.062;10.010;2023-06-14T11:35:52;21.90;99.90
59282;DHT22;45054;52.062;10.010;2023-06-14T11:38:20;21.90;99.90
59282;DHT22;45054;52.062;10.010;2023-06-14T11:40:45;22.00;99.90
59282;DHT22;45054;52.062;10.010;2023-06-14T11:43:11;21.90;99.90
59282;DHT22;45054;52.062;10.010;2023-06-14T11:45:37;21.80;99.90
59282;DHT22;45054;52.062;10.010;2023-06-14T11:48:03;21.70;99.90
59282;DHT22;45054;52.062;10.010;2023-06-14T11:50:28;21.80;99.90
59282;DHT22;45054;52.062;10.010;2023-06-14T11:52:54;21.80;99.90
59282;DHT22;45054;52.062;10.010;2023-06-14T11:55:22;21.90;99.90
59282;DHT22;45054;52.062;10.010;2023-06-14T11:57:47;21.90;99.90
59282;DHT22;45054;52.062;10.010;2023-06-14T12:00:14;21.90;99.90
59282;DHT22;45054;52.062;10.010;2023-06-14T12:02:40;21.80;99.90
59282;DHT22;45054;52.062;10.010;2023-06-14T12:05:06;21.80;99.90
59282;DHT22;45054;52.062;10.010;2023-06-14T12:07:31;21.90;99.90
59282;DHT22;45054;52.062;10.010;2023-06-14T12:10:04;22.10;99.90
59282;DHT22;45054;52.062;10.010;2023-06-14T12:12:31;22.50;99.90
59282;DHT22;45054;52.062;10.010;2023-06-14T12:15:02;22.70;99.90
59282;DHT22;45054;52.062;10.010;2023-06-14T12:17:31;22.70;99.90
59282;DHT22;45054;52.062;10.010;2023-06-14T12:19:57;22.60;99.90
59282;DHT22;45054;52.062;10.010;2023-06-14T12:22:23;22.60;99.90
59282;DHT22;45054;52.062;10.010;2023-06-14T12:24:49;22.40;99.90
59282;DHT22;45054;52.062;10.010;2023-06-14T12:27:15;22.40;99.90
59282;DHT22;45054;52.062;10.010;2023-06-14T12:29:43;22.40;99.90
59282;DHT22;45054;52.062;10.010;2023-06-14T12:32:09;22.60;99.90
59282;DHT22;45054;52.062;10.010;2023-06-14T12:34:35;22.80;99.90
59282;DHT22;45054;52.062;10.010;2023-06-14T12:37:01;22.90;99.90
59282;DHT22;45054;52.062;10.010;2023-06-14T12:39:27;23.00;99.90
59282;DHT22;45054;52.062;10.010;2023-06-14T12:41:52;22.90;99.90
59282;DHT22;45054;52.062;10.010;2023-06-14T12:44:18;22.90;99.90
59282;DHT22;45054;52.062;10.010;2023-06-14T12:46:46;22.90;99.90
59282;DHT22;45054;52.062;10.010;2023-06-14T12:49:13;23.10;99.90
59282;DHT22;45054;52.062;10.010;2023-06-14T12:51:39;23.30;99.90
59282;DHT22;45054;52.062;10.010;2023-06-14T12:54:05;23.30;99.90
59282;DHT22;45054;52.062;10.010;2023-06-14T12:56:31;23.20;99.90
59282;DHT22;45054;52.062;10.010;2023-06-14T12:58:57;23.30;99.90
59282;DHT22;45054;52.062;10.010;2023-06-14T13:01:23;23.20;99.90
59282;DHT22;45054;52.062;10.010;2023-06-14T13:03:51;23.00;99.90
59282;DHT22;45054;52.062;10.010;2023-06-14T13:06:17;22.80;99.90
59282;DHT22;45054;52.062;10.010;2023-06-14T13:08:42;22.80;99.90
59282;DHT22;45054;52.062;10.010;2023-06-14T13:11:08;22.70;99.90
59282;DHT22;45054;52.062;10.010;2023-06-14T13:13:34;22.70;99.90
59282;DHT22;45054;52.062;10.010;2023-06-14T13:16:00;22.70;99.90
59282;DHT22;45054;52.062;10.010;2023-06-14T13:18:26;22.70;99.90
59282;DHT22;45054;52.062;10.010;2023-06-14T13:20:54;22.60;99.90
59282;DHT22;45054;52.062;10.010;2023-06-14T13:23:20;22.60;99.90
59282;DHT22;45054;52.062;10.010;2023-06-14T13:25:46;22.60;99.90
59282;DHT22;45054;52.062;10.010;2023-06-14T13:28:12;22.50;99.90
59282;DHT22;45054;52.062;10.010;2023-06-14T13:30:37;22.50;99.90
59282;DHT22;45054;52.062;10.010;2023-06-14T13:33:04;22.60;99.90
59282;DHT22;45054;52.062;10.010;2023-06-14T13:35:29;22.60;99.90
59282;DHT22;45054;52.062;10.010;2023-06-14T13:37:57;22.70;99.90
59282;DHT22;45054;52.062;10.010;2023-06-14T13:40:22;23.00;99.90
59282;DHT22;45054;52.062;10.010;2023-06-14T13:42:48;23.40;99.90
59282;DHT22;45054;52.062;10.010;2023-06-14T13:45:14;23.50;99.90
59282;DHT22;45054;52.062;10.010;2023-06-14T13:47:40;23.70;99.90
59282;DHT22;45054;52.062;10.010;2023-06-14T13:50:06;23.60;99.90
59282;DHT22;45054;52.062;10.010;2023-06-14T13:52:32;23.70;99.90
59282;DHT22;45054;52.062;10.010;2023-06-14T13:55:00;23.90;99.90
59282;DHT22;45054;52.062;10.010;2023-06-14T13:57:26;24.20;99.90
59282;DHT22;45054;52.062;10.010;2023-06-14T13:59:52;24.40;99.90
59282;DHT22;45054;52.062;10.010;2023-06-14T14:02:18;24.80;99.90
59282;DHT22;45054;52.062;10.010;2023-06-14T14:04:44;25.10;99.90
59282;DHT22;45054;52.062;10.010;2023-06-14T14:07:10;25.40;99.90
59282;DHT22;45054;52.062;10.010;2023-06-14T14:09:36;25.50;99.90
59282;DHT22;45054;52.062;10.010;2023-06-14T14:12:04;25.60;99.90
59282;DHT22;45054;52.062;10.010;2023-06-14T14:14:30;25.60;99.90
59282;DHT22;45054;52.062;10.010;2023-06-14T14:16:56;25.60;99.90
59282;DHT22;45054;52.062;10.010;2023-06-14T14:19:22;25.60;99.90
59282;DHT22;45054;52.062;10.010;2023-06-14T14:21:48;25.40;99.90
59282;DHT22;45054;52.062;10.010;2023-06-14T14:24:13;25.00;99.90
59282;DHT22;45054;52.062;10.010;2023-06-14T14:26:40;24.60;99.90
59282;DHT22;45054;52.062;10.010;2023-06-14T14:29:07;24.20;99.90
59282;DHT22;45054;52.062;10.010;2023-06-14T14:31:33;23.90;99.90
59282;DHT22;45054;52.062;10.010;2023-06-14T14:33:58;23.60;99.90
59282;DHT22;45054;52.062;10.010;2023-06-14T14:36:24;23.40;99.90
59282;DHT22;45054;52.062;10.010;2023-06-14T14:38:50;23.20;99.90
59282;DHT22;45054;52.062;10.010;2023-06-14T14:41:16;23.10;99.90
59282;DHT22;45054;52.062;10.010;2023-06-14T14:43:42;23.00;99.90
59282;DHT22;45054;52.062;10.010;2023-06-14T14:46:10;23.00;99.90
59282;DHT22;45054;52.062;10.010;2023-06-14T14:48:36;22.90;99.90
59282;DHT22;45054;52.062;10.010;2023-06-14T14:51:02;22.90;99.90
59282;DHT22;45054;52.062;10.010;2023-06-14T14:53:28;22.90;99.90
59282;DHT22;45054;52.062;10.010;2023-06-14T14:55:54;23.00;99.90
59282;DHT22;45054;52.062;10.010;2023-06-14T14:58:20;23.10;99.90
59282;DHT22;45054;52.062;10.010;2023-06-14T15:00:45;23.20;99.90
59282;DHT22;45054;52.062;10.010;2023-06-14T15:03:14;23.40;99.90
59282;DHT22;45054;52.062;10.010;2023-06-14T15:05:39;23.50;99.90
59282;DHT22;45054;52.062;10.010;2023-06-14T15:08:05;23.50;99.90
59282;DHT22;45054;52.062;10.010;2023-06-14T15:10:32;23.50;99.90
59282;DHT22;45054;52.062;10.010;2023-06-14T15:12:57;23.40;99.90